createdAt,value
2023-04-27T00:00:11.889Z,99231.50
2023-04-27T00:02:40.660Z,99225.75
2023-04-27T00:05:11.752Z,99223.38
2023-04-27T00:07:42.100Z,99223.00
2023-04-27T00:10:12.239Z,99225.22
2023-04-27T00:12:42.043Z,99218.09
2023-04-27T00:15:12.322Z,99221.38
2023-04-27T00:17:42.300Z,99212.53
2023-04-27T00:20:13.001Z,99214.00
2023-04-27T00:22:43.097Z,99215.97
2023-04-27T00:25:11.963Z,99213.91
2023-04-27T00:27:40.882Z,99216.47
2023-04-27T00:30:11.309Z,99224.69
2023-04-27T00:32:40.031Z,99214.53
2023-04-27T00:35:10.164Z,99217.19
2023-04-27T00:37:38.951Z,99219.81
2023-04-27T00:40:11.357Z,99228.50
2023-04-27T00:42:40.106Z,99219.66
2023-04-27T00:45:10.833Z,99225.03
2023-04-27T00:47:39.764Z,99232.81
2023-04-27T00:50:10.654Z,99226.59
2023-04-27T00:52:40.286Z,99229.06
2023-04-27T00:55:12.092Z,99224.56
2023-04-27T00:57:42.182Z,99229.22
2023-04-27T01:00:13.874Z,99233.34
2023-04-27T01:02:44.173Z,99230.44
2023-04-27T01:05:13.388Z,99235.44
2023-04-27T01:07:42.856Z,99232.06
2023-04-27T01:10:13.063Z,99229.22
2023-04-27T01:12:41.760Z,99233.78
2023-04-27T01:15:12.700Z,99239.44
2023-04-27T01:17:41.806Z,99239.22
2023-04-27T01:20:11.878Z,99237.84
2023-04-27T01:22:40.859Z,99238.88
2023-04-27T01:25:12.781Z,99244.38
2023-04-27T01:27:41.448Z,99235.59
2023-04-27T01:30:10.528Z,99234.16
2023-04-27T01:32:39.616Z,99239.44
2023-04-27T01:35:09.032Z,99237.47
2023-04-27T01:37:38.101Z,99241.00
2023-04-27T01:40:09.712Z,99240.75
2023-04-27T01:42:39.886Z,99240.28
2023-04-27T01:45:12.773Z,99242.31
2023-04-27T01:47:42.115Z,99246.41
2023-04-27T01:50:11.852Z,99247.59
2023-04-27T01:52:41.323Z,99255.78
2023-04-27T01:55:11.262Z,99251.81
2023-04-27T01:57:41.417Z,99255.09
2023-04-27T02:00:11.825Z,99254.38
2023-04-27T02:02:51.173Z,99255.19
2023-04-27T02:05:20.420Z,99253.72
2023-04-27T02:07:51.374Z,99257.16
2023-04-27T02:10:22.246Z,99255.78
2023-04-27T02:12:52.488Z,99262.97
2023-04-27T02:15:21.906Z,99262.75
2023-04-27T02:17:50.812Z,99263.91
2023-04-27T02:20:19.882Z,99259.88
2023-04-27T02:22:48.686Z,99264.88
2023-04-27T02:25:17.496Z,99265.59
2023-04-27T02:27:46.668Z,99262.06
2023-04-27T02:30:17.487Z,99264.41
2023-04-27T02:32:47.420Z,99255.88
2023-04-27T02:35:16.252Z,99265.00
2023-04-27T02:37:44.981Z,99261.94
2023-04-27T02:40:17.045Z,99259.34
2023-04-27T02:42:45.852Z,99262.75
2023-04-27T02:45:16.034Z,99262.88
2023-04-27T02:47:45.768Z,99270.38
2023-04-27T02:50:15.724Z,99271.56
2023-04-27T02:52:44.376Z,99262.66
2023-04-27T02:55:13.303Z,99253.22
2023-04-27T02:57:42.310Z,99260.41
2023-04-27T03:00:12.581Z,99267.47
2023-04-27T03:02:42.973Z,99266.72
2023-04-27T03:05:12.993Z,99261.50
2023-04-27T03:07:42.088Z,99263.44
2023-04-27T03:10:11.517Z,99268.63
2023-04-27T03:12:40.281Z,99265.56
2023-04-27T03:15:10.675Z,99271.31
2023-04-27T03:17:39.370Z,99272.50
2023-04-27T03:20:12.350Z,99274.94
2023-04-27T03:22:41.010Z,99280.06
2023-04-27T03:25:10.371Z,99277.09
2023-04-27T03:27:40.778Z,99287.63
2023-04-27T03:30:11.584Z,99283.91
2023-04-27T03:32:40.512Z,99283.50
2023-04-27T03:35:11.286Z,99297.59
2023-04-27T03:37:40.477Z,99292.72
2023-04-27T03:40:11.243Z,99299.88
2023-04-27T03:42:40.043Z,99301.75
2023-04-27T03:45:12.127Z,99302.09
2023-04-27T03:47:41.262Z,99305.03
2023-04-27T03:50:12.422Z,99305.25
2023-04-27T03:52:41.449Z,99311.22
2023-04-27T03:55:11.041Z,99313.88
2023-04-27T03:57:41.648Z,99310.91
2023-04-27T04:00:13.056Z,99308.06
2023-04-27T04:02:42.340Z,99315.69
2023-04-27T04:05:15.047Z,99312.72
2023-04-27T04:07:44.001Z,99319.25
2023-04-27T04:10:13.948Z,99317.34
2023-04-27T04:12:43.886Z,99323.47
2023-04-27T04:15:14.554Z,99321.47
2023-04-27T04:17:44.540Z,99326.75
2023-04-27T04:20:15.407Z,99322.81
2023-04-27T04:22:44.663Z,99319.28
2023-04-27T04:25:15.237Z,99326.28
2023-04-27T04:27:44.825Z,99329.84
2023-04-27T04:30:14.964Z,99331.72
2023-04-27T04:32:45.137Z,99336.97
2023-04-27T04:35:17.926Z,99331.78
2023-04-27T04:37:46.876Z,99335.88
2023-04-27T04:40:16.716Z,99336.72
2023-04-27T04:42:47.506Z,99334.69
2023-04-27T04:45:16.571Z,99333.97
2023-04-27T04:47:45.699Z,99332.69
2023-04-27T04:50:15.851Z,99340.31
2023-04-27T04:52:44.787Z,99336.41
2023-04-27T04:55:14.091Z,99343.09
2023-04-27T04:57:43.097Z,99340.88
2023-04-27T05:00:14.037Z,99349.75
2023-04-27T05:02:43.319Z,99347.75
2023-04-27T05:05:12.123Z,99342.28
2023-04-27T05:07:42.199Z,99336.66
2023-04-27T05:10:11.315Z,99348.22
2023-04-27T05:13:07.178Z,99349.88
2023-04-27T05:15:35.977Z,99344.44
2023-04-27T05:18:04.962Z,99346.13
2023-04-27T05:20:36.869Z,99346.97
2023-04-27T05:23:06.945Z,99343.88
2023-04-27T05:25:41.551Z,99334.84
2023-04-27T05:28:10.870Z,99342.34
2023-04-27T05:30:39.636Z,99335.69
2023-04-27T05:33:08.468Z,99342.34
2023-04-27T05:35:37.374Z,99339.84
2023-04-27T05:38:07.394Z,99333.00
2023-04-27T05:40:36.400Z,99341.44
2023-04-27T05:43:05.674Z,99343.00
2023-04-27T05:45:34.586Z,99338.78
2023-04-27T05:48:03.367Z,99341.63
2023-04-27T05:50:32.268Z,99341.56
2023-04-27T05:53:01.108Z,99331.00
2023-04-27T05:55:31.366Z,99329.91
2023-04-27T05:58:08.585Z,99340.75
2023-04-27T06:00:38.509Z,99332.28
2023-04-27T06:03:07.434Z,99334.97
2023-04-27T06:05:36.525Z,99336.41
2023-04-27T06:08:05.632Z,99329.41
2023-04-27T06:10:35.871Z,99323.19
2023-04-27T06:13:04.601Z,99329.09
2023-04-27T06:15:33.281Z,99324.94
2023-04-27T06:18:02.110Z,99335.16
2023-04-27T06:20:30.810Z,99330.75
2023-04-27T06:23:00.510Z,99337.97
2023-04-27T06:25:29.492Z,99336.59
2023-04-27T06:27:59.933Z,99327.66
2023-04-27T06:30:28.693Z,99335.28
2023-04-27T06:32:57.441Z,99338.44
2023-04-27T06:35:26.450Z,99338.94
2023-04-27T06:37:58.868Z,99344.13
2023-04-27T06:40:28.064Z,99338.31
2023-04-27T06:42:58.295Z,99326.19
2023-04-27T06:45:27.194Z,99327.06
2023-04-27T06:47:56.258Z,99324.88
2023-04-27T06:50:25.006Z,99330.03
2023-04-27T06:52:53.638Z,99328.41
2023-04-27T06:55:22.532Z,99332.06
2023-04-27T06:57:51.210Z,99336.19
2023-04-27T07:00:21.976Z,99332.72
2023-04-27T07:02:51.484Z,99338.50
2023-04-27T07:05:20.473Z,99336.69
2023-04-27T07:07:49.262Z,99325.88
2023-04-27T07:10:17.947Z,99336.31
2023-04-27T07:12:46.664Z,99336.34
2023-04-27T07:15:15.439Z,99337.16
2023-04-27T07:17:46.542Z,99343.13
2023-04-27T07:20:16.845Z,99343.16
2023-04-27T07:22:45.676Z,99344.56
2023-04-27T07:25:14.376Z,99338.84
2023-04-27T07:27:43.209Z,99340.50
2023-04-27T07:30:14.315Z,99337.59
2023-04-27T07:32:44.990Z,99339.66
2023-04-27T07:35:14.027Z,99338.44
2023-04-27T07:37:44.218Z,99341.91
2023-04-27T07:40:16.770Z,99334.31
2023-04-27T07:42:46.468Z,99341.09
2023-04-27T07:45:15.440Z,99344.38
2023-04-27T07:47:46.457Z,99343.97
2023-04-27T07:50:18.685Z,99337.56
2023-04-27T07:52:47.320Z,99349.25
2023-04-27T07:55:16.000Z,99342.84
2023-04-27T07:57:44.699Z,99346.25
2023-04-27T08:00:14.709Z,99348.72
2023-04-27T08:02:45.125Z,99353.22
2023-04-27T08:05:14.421Z,99354.66
2023-04-27T08:07:44.762Z,99355.66
2023-04-27T08:10:13.999Z,99353.28
2023-04-27T08:12:42.685Z,99369.22
2023-04-27T08:15:13.187Z,99365.03
2023-04-27T08:17:42.144Z,99362.13
2023-04-27T08:20:13.797Z,99354.66
2023-04-27T08:22:43.914Z,99349.81
2023-04-27T08:25:12.728Z,99348.88
2023-04-27T08:27:41.958Z,99355.75
2023-04-27T08:30:11.929Z,99354.84
2023-04-27T08:32:41.286Z,99351.00
2023-04-27T08:35:11.897Z,99348.13
2023-04-27T08:37:40.582Z,99364.59
2023-04-27T08:40:11.237Z,99367.91
2023-04-27T08:42:54.422Z,99361.16
2023-04-27T08:45:25.203Z,99357.22
2023-04-27T08:47:54.895Z,99354.25
2023-04-27T08:50:26.004Z,99353.16
2023-04-27T08:52:54.879Z,99345.66
2023-04-27T08:55:24.184Z,99350.69
2023-04-27T08:57:57.642Z,99350.06
2023-04-27T09:00:28.271Z,99363.94
2023-04-27T09:02:57.152Z,99354.84
2023-04-27T09:05:27.678Z,99352.72
2023-04-27T09:08:01.497Z,99350.88
2023-04-27T09:10:30.438Z,99352.69
2023-04-27T09:13:01.973Z,99347.00
2023-04-27T09:15:30.878Z,99350.44
2023-04-27T09:18:00.162Z,99353.81
2023-04-27T09:20:30.336Z,99353.81
2023-04-27T09:22:59.091Z,99349.66
2023-04-27T09:25:30.210Z,99346.72
2023-04-27T09:28:01.037Z,99347.31
2023-04-27T09:30:31.077Z,99344.31
2023-04-27T09:33:02.283Z,99343.28
2023-04-27T09:35:34.557Z,99335.50
2023-04-27T09:38:03.239Z,99338.84
2023-04-27T09:40:32.136Z,99330.94
2023-04-27T09:43:03.238Z,99329.28
2023-04-27T09:45:34.813Z,99329.44
2023-04-27T09:48:05.585Z,99325.28
2023-04-27T09:50:39.424Z,99325.91
2023-04-27T09:53:11.461Z,99338.63
2023-04-27T09:55:49.997Z,99331.34
2023-04-27T09:58:55.564Z,99327.91
2023-04-27T10:01:37.699Z,99321.72
2023-04-27T10:04:29.259Z,99327.91
2023-04-27T10:07:04.962Z,99331.16
2023-04-27T10:09:39.156Z,99326.44
2023-04-27T10:12:20.246Z,99317.34
2023-04-27T10:14:54.852Z,99321.09
2023-04-27T10:17:32.614Z,99319.44
2023-04-27T10:20:04.195Z,99317.97
2023-04-27T10:22:56.247Z,99320.31
2023-04-27T10:25:29.511Z,99322.34
2023-04-27T10:28:01.369Z,99326.00
2023-04-27T10:30:34.875Z,99322.44
2023-04-27T10:33:09.541Z,99335.34
2023-04-27T10:35:43.520Z,99334.44
2023-04-27T10:38:19.156Z,99332.22
2023-04-27T10:40:57.289Z,99327.00
2023-04-27T10:43:30.066Z,99323.38
2023-04-27T10:46:10.867Z,99320.72
2023-04-27T10:48:40.774Z,99322.25
2023-04-27T10:51:09.743Z,99321.50
2023-04-27T10:53:39.968Z,99320.13
2023-04-27T10:56:09.238Z,99320.47
2023-04-27T11:01:11.045Z,99314.63
2023-04-27T11:03:46.957Z,99326.31
2023-04-27T11:06:15.800Z,99322.97
2023-04-27T11:08:47.326Z,99325.28
2023-04-27T11:11:18.600Z,99312.63
2023-04-27T11:13:52.987Z,99315.94
2023-04-27T11:16:21.771Z,99315.47
2023-04-27T11:18:50.769Z,99317.44
2023-04-27T11:21:22.329Z,99321.03
2023-04-27T11:23:52.711Z,99315.09
2023-04-27T11:26:34.317Z,99313.03
2023-04-27T11:29:17.862Z,99313.56
2023-04-27T11:31:51.271Z,99314.94
2023-04-27T11:34:24.438Z,99316.63
2023-04-27T11:39:39.007Z,99311.91
2023-04-27T11:42:19.493Z,99325.22
2023-04-27T11:44:55.688Z,99319.75
2023-04-27T11:47:27.709Z,99332.19
2023-04-27T11:50:00.947Z,99336.97
2023-04-27T11:52:32.009Z,99334.78
2023-04-27T11:55:04.717Z,99330.66
2023-04-27T11:57:36.693Z,99332.59
2023-04-27T12:00:11.290Z,99318.09
2023-04-27T12:02:45.613Z,99320.78
2023-04-27T12:05:28.344Z,99322.84
2023-04-27T12:07:58.469Z,99333.81
2023-04-27T12:10:28.689Z,99330.13
2023-04-27T12:12:57.322Z,99336.28
2023-04-27T12:15:26.181Z,99334.25
2023-04-27T12:17:54.834Z,99332.38
2023-04-27T12:20:24.067Z,99333.94
2023-04-27T12:22:52.715Z,99334.50
2023-04-27T12:25:21.544Z,99332.56
2023-04-27T12:27:54.353Z,99331.09
2023-04-27T12:30:25.126Z,99332.16
2023-04-27T12:32:54.659Z,99323.81
2023-04-27T12:35:24.609Z,99330.19
2023-04-27T12:37:53.341Z,99329.06
2023-04-27T12:40:23.333Z,99330.16
2023-04-27T12:42:53.427Z,99326.78
2023-04-27T12:45:22.356Z,99328.63
2023-04-27T12:48:02.826Z,99332.03
2023-04-27T12:50:33.550Z,99317.94
2023-04-27T12:53:02.314Z,99324.97
2023-04-27T12:55:33.560Z,99326.66
2023-04-27T12:58:05.307Z,99322.00
2023-04-27T13:00:34.387Z,99322.56
2023-04-27T13:03:03.613Z,99322.75
2023-04-27T13:05:32.585Z,99328.56
2023-04-27T13:08:02.364Z,99319.78
2023-04-27T13:10:32.290Z,99315.59
2023-04-27T13:13:01.346Z,99317.41
2023-04-27T13:15:32.014Z,99307.97
2023-04-27T13:18:02.136Z,99314.56
2023-04-27T13:20:32.104Z,99310.03
2023-04-27T13:23:01.171Z,99308.19
2023-04-27T13:25:31.028Z,99304.22
2023-04-27T13:28:01.140Z,99308.56
2023-04-27T13:30:33.598Z,99306.19
2023-04-27T13:33:18.343Z,99306.63
2023-04-27T13:35:50.914Z,99300.16
2023-04-27T13:38:20.410Z,99299.41
2023-04-27T13:40:49.530Z,99299.56
2023-04-27T13:43:21.421Z,99296.03
2023-04-27T13:45:56.462Z,99286.63
2023-04-27T13:48:26.569Z,99289.63
2023-04-27T13:50:57.945Z,99292.59
2023-04-27T13:53:29.940Z,99298.00
2023-04-27T13:56:01.193Z,99295.63
2023-04-27T13:58:30.246Z,99288.00
2023-04-27T14:01:01.172Z,99274.59
2023-04-27T14:03:30.884Z,99282.13
2023-04-27T14:05:59.753Z,99274.72
2023-04-27T14:08:29.065Z,99278.16
2023-04-27T14:10:57.989Z,99280.78
2023-04-27T14:13:27.013Z,99275.75
2023-04-27T14:15:58.046Z,99275.75
2023-04-27T14:18:32.542Z,99277.81
2023-04-27T14:23:49.990Z,99283.13
2023-04-27T14:26:19.265Z,99279.88
2023-04-27T14:28:47.926Z,99276.09
2023-04-27T14:31:17.180Z,99270.84
2023-04-27T14:33:48.341Z,99272.09
2023-04-27T14:36:19.191Z,99275.84
2023-04-27T14:38:49.039Z,99277.94
2023-04-27T14:41:17.783Z,99273.59
2023-04-27T14:43:47.118Z,99286.09
2023-04-27T14:46:20.688Z,99283.16
2023-04-27T14:48:51.508Z,99289.22
2023-04-27T14:51:20.538Z,99280.75
2023-04-27T14:53:49.188Z,99283.75
2023-04-27T14:56:18.030Z,99274.47
2023-04-27T14:58:46.863Z,99279.91
2023-04-27T15:01:16.783Z,99279.03
2023-04-27T15:03:46.425Z,99281.72
2023-04-27T15:06:19.915Z,99277.03
2023-04-27T15:08:51.007Z,99278.06
2023-04-27T15:11:20.820Z,99283.09
2023-04-27T15:13:50.102Z,99279.44
2023-04-27T15:16:20.311Z,99281.03
2023-04-27T15:18:49.373Z,99274.28
2023-04-27T15:21:19.671Z,99288.81
2023-04-27T15:23:48.668Z,99280.94
2023-04-27T15:26:18.362Z,99277.44
2023-04-27T15:28:47.423Z,99282.72
2023-04-27T15:31:16.339Z,99281.94
2023-04-27T15:33:45.433Z,99283.16
2023-04-27T15:36:14.574Z,99279.06
2023-04-27T15:38:45.011Z,99273.31
2023-04-27T15:41:14.093Z,99288.53
2023-04-27T15:43:42.884Z,99284.31
2023-04-27T15:46:11.963Z,99276.00
2023-04-27T15:48:40.792Z,99282.66
2023-04-27T15:51:10.552Z,99278.34
2023-04-27T15:53:39.617Z,99272.19
2023-04-27T15:56:10.019Z,99278.13
2023-04-27T15:58:39.840Z,99272.38
2023-04-27T16:01:08.632Z,99274.25
2023-04-27T16:03:38.032Z,99266.63
2023-04-27T16:06:07.656Z,99263.28
2023-04-27T16:08:36.593Z,99261.16
2023-04-27T16:11:05.508Z,99252.38
2023-04-27T16:13:36.722Z,99254.56
2023-04-27T16:16:05.825Z,99248.31
2023-04-27T16:18:34.965Z,99247.47
2023-04-27T16:21:04.139Z,99243.38
2023-04-27T16:23:33.317Z,99243.94
2023-04-27T16:26:03.616Z,99244.56
2023-04-27T16:28:32.890Z,99246.94
2023-04-27T16:31:03.962Z,99248.06
2023-04-27T16:33:32.819Z,99241.25
2023-04-27T16:36:01.680Z,99248.03
2023-04-27T16:38:30.270Z,99246.16
2023-04-27T16:41:01.066Z,99245.38
2023-04-27T16:43:31.272Z,99245.75
2023-04-27T16:45:59.952Z,99244.09
2023-04-27T16:48:31.658Z,99245.91
2023-04-27T16:51:01.067Z,99246.50
2023-04-27T16:53:30.048Z,99252.00
2023-04-27T16:56:02.193Z,99245.06
2023-04-27T16:58:34.643Z,99251.69
2023-04-27T17:01:03.447Z,99253.31
2023-04-27T17:03:36.080Z,99261.53
2023-04-27T17:06:05.472Z,99265.75
2023-04-27T17:08:34.328Z,99259.38
2023-04-27T17:11:03.165Z,99261.97
2023-04-27T17:13:33.043Z,99265.69
2023-04-27T17:16:03.599Z,99264.66
2023-04-27T17:18:34.261Z,99266.91
2023-04-27T17:21:03.625Z,99266.84
2023-04-27T17:23:33.750Z,99270.97
2023-04-27T17:26:02.999Z,99266.41
2023-04-27T17:28:31.963Z,99256.16
2023-04-27T17:31:00.633Z,99265.25
2023-04-27T17:33:29.234Z,99259.88
2023-04-27T17:35:59.271Z,99266.56
2023-04-27T17:38:28.786Z,99269.00
2023-04-27T17:40:57.585Z,99269.25
2023-04-27T17:43:26.267Z,99269.53
2023-04-27T17:45:54.986Z,99272.44
2023-04-27T17:48:23.728Z,99272.84
2023-04-27T17:50:52.764Z,99273.88
2023-04-27T17:53:23.035Z,99274.38
2023-04-27T17:55:52.799Z,99280.47
2023-04-27T17:58:21.564Z,99277.38
2023-04-27T18:00:50.461Z,99281.66
2023-04-27T18:03:19.329Z,99281.16
2023-04-27T18:05:48.126Z,99283.75
2023-04-27T18:08:16.818Z,99284.91
2023-04-27T18:10:47.043Z,99286.53
2023-04-27T18:13:15.727Z,99294.91
2023-04-27T18:15:44.355Z,99293.06
2023-04-27T18:18:16.835Z,99300.75
2023-04-27T18:20:47.762Z,99296.72
2023-04-27T18:23:16.781Z,99302.47
2023-04-27T18:25:47.134Z,99309.84
2023-04-27T18:28:21.531Z,99302.47
2023-04-27T18:30:52.535Z,99309.81
2023-04-27T18:33:24.975Z,99310.00
2023-04-27T18:35:54.899Z,99308.63
2023-04-27T18:38:25.001Z,99318.88
2023-04-27T18:40:55.614Z,99321.34
2023-04-27T18:43:25.657Z,99323.34
2023-04-27T18:45:55.266Z,99330.59
2023-04-27T18:48:26.954Z,99337.47
2023-04-27T18:50:56.596Z,99332.91
2023-04-27T18:53:25.957Z,99343.50
2023-04-27T18:55:56.844Z,99339.06
2023-04-27T18:58:26.211Z,99345.28
2023-04-27T19:00:59.603Z,99349.88
2023-04-27T19:03:29.649Z,99342.91
2023-04-27T19:05:59.326Z,99349.13
2023-04-27T19:08:29.980Z,99342.94
2023-04-27T19:11:16.880Z,99358.72
2023-04-27T19:13:45.853Z,99361.72
2023-04-27T19:16:22.264Z,99358.09
2023-04-27T19:18:52.850Z,99356.03
2023-04-27T19:21:21.665Z,99368.72
2023-04-27T19:23:50.845Z,99366.19
2023-04-27T19:26:21.892Z,99363.34
2023-04-27T19:28:50.741Z,99365.59
2023-04-27T19:31:19.666Z,99365.28
2023-04-27T19:36:24.753Z,99362.75
2023-04-27T19:38:55.457Z,99363.09
2023-04-27T19:41:25.799Z,99366.63
2023-04-27T19:43:54.579Z,99358.34
2023-04-27T19:46:23.360Z,99357.34
2023-04-27T19:48:54.377Z,99353.47
2023-04-27T19:51:23.213Z,99348.16
2023-04-27T19:53:51.991Z,99353.94
2023-04-27T19:56:20.686Z,99343.69
2023-04-27T19:58:50.742Z,99338.38
2023-04-27T20:01:20.950Z,99341.25
2023-04-27T20:03:49.796Z,99338.84
2023-04-27T20:06:20.016Z,99338.81
2023-04-27T20:08:49.051Z,99333.69
2023-04-27T20:11:17.752Z,99334.50
2023-04-27T20:13:46.439Z,99339.63
2023-04-27T20:16:17.440Z,99338.34
2023-04-27T20:18:46.636Z,99339.19
2023-04-27T20:21:16.586Z,99341.31
2023-04-27T20:23:45.295Z,99349.09
2023-04-27T20:26:13.973Z,99343.78
2023-04-27T20:28:42.609Z,99334.56
2023-04-27T20:31:11.321Z,99329.22
2023-04-27T20:33:41.388Z,99340.88
2023-04-27T20:36:17.161Z,99330.84
2023-04-27T20:38:47.460Z,99335.16
2023-04-27T20:41:16.309Z,99337.63
2023-04-27T20:43:45.600Z,99333.13
2023-04-27T20:46:14.572Z,99340.06
2023-04-27T20:48:44.694Z,99338.03
2023-04-27T20:51:13.611Z,99337.41
2023-04-27T20:53:42.433Z,99340.91
2023-04-27T20:56:12.001Z,99337.81
2023-04-27T20:58:40.701Z,99338.41
2023-04-27T21:01:09.453Z,99337.81
2023-04-27T21:03:38.471Z,99335.38
2023-04-27T21:06:08.928Z,99339.81
2023-04-27T21:08:37.828Z,99337.34
2023-04-27T21:11:07.238Z,99332.22
2023-04-27T21:13:36.014Z,99328.69
2023-04-27T21:16:05.069Z,99324.41
2023-04-27T21:18:33.872Z,99318.28
2023-04-27T21:21:02.729Z,99316.25
2023-04-27T21:23:36.595Z,99311.34
2023-04-27T21:26:05.489Z,99314.22
2023-04-27T21:28:34.180Z,99312.13
2023-04-27T21:31:03.361Z,99304.72
2023-04-27T21:33:32.204Z,99310.84
2023-04-27T21:36:01.036Z,99310.03
2023-04-27T21:38:29.751Z,99311.03
2023-04-27T21:41:00.194Z,99307.91
2023-04-27T21:43:28.939Z,99308.13
2023-04-27T21:45:57.592Z,99306.47
2023-04-27T21:48:26.293Z,99307.44
2023-04-27T21:50:54.994Z,99301.31
2023-04-27T21:53:23.889Z,99302.97
2023-04-27T21:55:52.635Z,99295.22
2023-04-27T21:58:22.659Z,99291.56
2023-04-27T22:00:51.741Z,99296.38
2023-04-27T22:03:20.638Z,99297.53
2023-04-27T22:05:50.368Z,99292.97
2023-04-27T22:08:19.054Z,99295.00
2023-04-27T22:10:47.760Z,99289.38
2023-04-27T22:13:19.320Z,99297.16
2023-04-27T22:15:50.155Z,99291.63
2023-04-27T22:18:18.856Z,99284.81
2023-04-27T22:20:47.512Z,99286.28
2023-04-27T22:23:16.234Z,99289.22
2023-04-27T22:25:45.527Z,99287.38
2023-04-27T22:28:14.368Z,99302.16
2023-04-27T22:30:43.426Z,99297.78
2023-04-27T22:33:13.641Z,99301.13
2023-04-27T22:35:42.385Z,99298.84
2023-04-27T22:38:11.517Z,99295.81
2023-04-27T22:40:40.405Z,99296.50
2023-04-27T22:43:09.078Z,99289.16
2023-04-27T22:45:39.049Z,99304.59
2023-04-27T22:48:08.170Z,99295.25
2023-04-27T22:50:38.329Z,99297.72
2023-04-27T22:53:07.158Z,99301.50
2023-04-27T22:55:35.896Z,99300.50
2023-04-27T22:58:04.625Z,99305.28
2023-04-27T23:00:33.516Z,99295.84
2023-04-27T23:03:02.300Z,99302.44
2023-04-27T23:05:31.319Z,99297.84
2023-04-27T23:08:01.423Z,99298.97
2023-04-27T23:10:31.235Z,99295.13
2023-04-27T23:13:02.032Z,99282.97
2023-04-27T23:15:30.707Z,99290.53
2023-04-27T23:17:59.409Z,99285.84
2023-04-27T23:20:29.216Z,99282.06
2023-04-27T23:22:58.180Z,99287.00
2023-04-27T23:25:28.298Z,99288.81
2023-04-27T23:27:57.083Z,99285.44
2023-04-27T23:30:25.783Z,99282.56
2023-04-27T23:32:54.462Z,99281.72
2023-04-27T23:35:23.541Z,99267.47
2023-04-27T23:37:52.275Z,99275.53
2023-04-27T23:40:21.207Z,99270.94
2023-04-27T23:42:51.877Z,99268.28
2023-04-27T23:45:21.043Z,99271.34
2023-04-27T23:47:49.704Z,99257.50
2023-04-27T23:50:18.592Z,99252.75
2023-04-27T23:52:47.386Z,99256.53
2023-04-27T23:55:16.160Z,99252.00
2023-04-27T23:57:45.543Z,99244.03
